Time;durP1;ratioP1;P1;durP2;ratioP2;P2;SDS_P1;SDS_P2;PMS_P1;PMS_P2;Temp;Humidity;BMP_temperature;BMP_pressure;BME280_temperature;BME280_humidity;BME280_pressure;Samples;Min_cycle;Max_cycle;Signal;HPM_P1;HPM_P2
2023/03/25 00:01:00;;;;;;;;;;;;;;;;;;5099201;28;19924;-69
2023/03/25 00:03:28;;;;;;;;;;;;;;;;;;5092843;28;20297;-69
2023/03/25 00:05:56;;;;;;;;;;;;;;;;;;5091591;28;19931;-69
2023/03/25 00:08:23;;;;;;;;;;;;;;;;;;5091508;28;20375;-69
2023/03/25 00:10:50;;;;;;;;;;;;;;;;;;5081422;28;19987;-69
2023/03/25 00:13:17;;;;;;;;;;;;;;;;;;5092698;28;19927;-69
2023/03/25 00:15:46;;;;;;;;;;;;;;;;;;5108291;28;20446;-69
2023/03/25 00:18:13;;;;;;;;;;;;;;;;;;5093806;28;19928;-70
2023/03/25 00:20:40;;;;;;;;;;;;;;;;;;5090035;28;19939;-68
2023/03/25 00:23:07;;;;;;;;;;;;;;;;;;5094429;28;19924;-68
2023/03/25 00:25:35;;;;;;;;;;;;;;;;;;5097129;28;20015;-68
2023/03/25 00:28:02;;;;;;;;;;;;;;;;;;5110267;28;19931;-68
2023/03/25 00:30:29;;;;;;;;;;;;;;;;;;5097665;28;19928;-69
2023/03/25 00:32:56;;;;;;;;;;;;;;;;;;5099361;28;20015;-69
2023/03/25 00:35:24;;;;;;;;;;;;;;;;;;5090249;28;19924;-69
2023/03/25 00:37:56;;;;;;;;;;;;;;;;;;5093704;28;19924;-69
2023/03/25 00:40:23;;;;;;;;;;;;;;;;;;5117690;28;20379;-69
2023/03/25 00:42:50;;;;;;;;;;;;;;;;;;5114878;28;20375;-68
2023/03/25 00:45:17;;;;;;;;;;;;;;;;;;5108316;27;20018;-68
2023/03/25 00:47:44;;;;;;;;;;;;;;;;;;5096842;28;20007;-68
2023/03/25 00:50:11;;;;;;;;;;;;;;;;;;5101360;28;19931;-69
2023/03/25 00:52:38;;;;;;;;;;;;;;;;;;5098975;28;20031;-68
2023/03/25 00:55:05;;;;;;;;;;;;;;;;;;5086872;28;19924;-70
2023/03/25 00:57:32;;;;;;;;;;;;;;;;;;5107214;28;19924;-68
2023/03/25 00:59:59;;;;;;;;;;;;;;;;;;5098500;28;20026;-68
2023/03/25 01:02:26;;;;;;;;;;;;;;;;;;5098080;28;19964;-70
2023/03/25 01:04:53;;;;;;;;;;;;;;;;;;5093945;28;19923;-69
2023/03/25 01:07:20;;;;;;;;;;;;;;;;;;5096681;28;19932;-69
2023/03/25 01:09:48;;;;;;;;;;;;;;;;;;5095354;28;20131;-69
2023/03/25 01:12:15;;;;;;;;;;;;;;;;;;5096811;28;19931;-69
2023/03/25 01:14:42;;;;;;;;;;;;;;;;;;5115228;28;19924;-68
2023/03/25 01:17:09;;;;;;;;;;;;;;;;;;5103082;28;20026;-68
2023/03/25 01:19:36;;;;;;;;;;;;;;;;;;5098206;28;19928;-69
2023/03/25 01:22:03;;;;;;;;;;;;;;;;;;5106514;28;19931;-69
2023/03/25 01:24:30;;;;;;;;;;;;;;;;;;5113250;28;20018;-68
2023/03/25 01:26:57;;;;;;;;;;;;;;;;;;5110567;28;19924;-69
2023/03/25 01:29:24;;;;;;;;;;;;;;;;;;5095244;28;19924;-68
2023/03/25 01:31:52;;;;;;;;;;;;;;;;;;5087548;28;19925;-69
2023/03/25 01:34:19;;;;;;;;;;;;;;;;;;5110198;28;19934;-68
2023/03/25 01:36:46;;;;;;;;;;;;;;;;;;5096968;28;19930;-68
2023/03/25 01:39:15;;;;;;;;;;;;;;;;;;5091847;28;20387;-68
2023/03/25 01:41:42;;;;;;;;;;;;;;;;;;5094669;28;20017;-68
2023/03/25 01:44:09;;;;;;;;;;;;;;;;;;5106135;28;19928;-69
2023/03/25 01:46:36;;;;;;;;;;;;;;;;;;5092536;28;19928;-69
2023/03/25 01:49:03;;;;;;;;;;;;;;;;;;5094091;28;20421;-69
2023/03/25 01:51:30;;;;;;;;;;;;;;;;;;5097701;28;19924;-69
2023/03/25 01:53:57;;;;;;;;;;;;;;;;;;5092735;28;20378;-68
2023/03/25 01:56:24;;;;;;;;;;;;;;;;;;5092490;28;19969;-68
2023/03/25 01:58:51;;;;;;;;;;;;;;;;;;5095763;28;19946;-68
2023/03/25 02:01:20;;;;;;;;;;;;;;;;;;5109022;28;19946;-68
2023/03/25 02:03:50;;;;;;;;;;;;;;;;;;5104523;28;20017;-68
2023/03/25 02:06:16;;;;;;;;;;;;;;;;;;5098906;28;19930;-68
2023/03/25 02:08:44;;;;;;;;;;;;;;;;;;5094046;28;20015;-69
2023/03/25 02:11:11;;;;;;;;;;;;;;;;;;5107637;28;19923;-68
2023/03/25 02:13:38;;;;;;;;;;;;;;;;;;5109772;28;19923;-68
2023/03/25 02:16:05;;;;;;;;;;;;;;;;;;5103244;28;20020;-68
2023/03/25 02:18:32;;;;;;;;;;;;;;;;;;5099440;28;19970;-68
2023/03/25 02:21:01;;;;;;;;;;;;;;;;;;5100601;28;19928;-70
2023/03/25 02:23:28;;;;;;;;;;;;;;;;;;5102438;28;19931;-68
2023/03/25 02:25:55;;;;;;;;;;;;;;;;;;5099528;28;20022;-68
2023/03/25 02:28:24;;;;;;;;;;;;;;;;;;5096338;28;19924;-68
2023/03/25 02:30:51;;;;;;;;;;;;;;;;;;5098939;28;19928;-68
2023/03/25 02:33:18;;;;;;;;;;;;;;;;;;5095314;28;19924;-68
2023/03/25 02:35:48;;;;;;;;;;;;;;;;;;5108507;28;19940;-67
2023/03/25 02:38:16;;;;;;;;;;;;;;;;;;5099852;28;19924;-68
2023/03/25 02:40:43;;;;;;;;;;;;;;;;;;5103018;28;19924;-69
2023/03/25 02:43:10;;;;;;;;;;;;;;;;;;5085688;28;19977;-69
2023/03/25 02:45:37;;;;;;;;;;;;;;;;;;5092950;28;19924;-69
2023/03/25 02:48:04;;;;;;;;;;;;;;;;;;5080490;28;19983;-69
2023/03/25 02:50:31;;;;;;;;;;;;;;;;;;5090726;28;20007;-69
2023/03/25 02:52:58;;;;;;;;;;;;;;;;;;5093868;28;19924;-69
2023/03/25 02:55:25;;;;;;;;;;;;;;;;;;5096976;28;20283;-68
2023/03/25 02:57:53;;;;;;;;;;;;;;;;;;5089009;28;19935;-68
2023/03/25 03:00:21;;;;;;;;;;;;;;;;;;5090625;28;20345;-69
2023/03/25 03:02:49;;;;;;;;;;;;;;;;;;5095587;28;20017;-69
2023/03/25 03:05:16;;;;;;;;;;;;;;;;;;5089539;28;19970;-67
2023/03/25 03:07:43;;;;;;;;;;;;;;;;;;5086261;28;19924;-68
2023/03/25 03:10:18;;;;;;;;;;;;;;;;;;5102252;28;20448;-68
2023/03/25 03:12:46;;;;;;;;;;;;;;;;;;5092557;28;20378;-69
2023/03/25 03:15:13;;;;;;;;;;;;;;;;;;5095882;28;19931;-69
2023/03/25 03:17:40;;;;;;;;;;;;;;;;;;5090423;28;20353;-69
2023/03/25 03:20:07;;;;;;;;;;;;;;;;;;5100013;28;20366;-69
2023/03/25 03:22:34;;;;;;;;;;;;;;;;;;5090932;28;19974;-69
2023/03/25 03:25:01;;;;;;;;;;;;;;;;;;5088266;28;19930;-69
2023/03/25 03:27:32;;;;;;;;;;;;;;;;;;5088357;28;20279;-69
2023/03/25 03:29:59;;;;;;;;;;;;;;;;;;5098569;28;19931;-69
2023/03/25 03:32:27;;;;;;;;;;;;;;;;;;5091882;28;19931;-69
2023/03/25 03:34:55;;;;;;;;;;;;;;;;;;5105755;28;19989;-69
2023/03/25 03:37:22;;;;;;;;;;;;;;;;;;5093821;28;19924;-69
2023/03/25 03:39:49;;;;;;;;;;;;;;;;;;5090747;28;19924;-68
2023/03/25 03:42:16;;;;;;;;;;;;;;;;;;5103668;28;19927;-69
2023/03/25 03:44:43;;;;;;;;;;;;;;;;;;5084946;28;20385;-68
2023/03/25 03:47:10;;;;;;;;;;;;;;;;;;5093321;28;19925;-69
2023/03/25 03:49:38;;;;;;;;;;;;;;;;;;5090278;28;20011;-68
2023/03/25 03:52:05;;;;;;;;;;;;;;;;;;5088591;28;19924;-68
2023/03/25 03:54:32;;;;;;;;;;;;;;;;;;5099829;28;19924;-68
2023/03/25 03:57:00;;;;;;;;;;;;;;;;;;5094575;28;19967;-69
2023/03/25 03:59:27;;;;;;;;;;;;;;;;;;5099882;28;19924;-69
2023/03/25 04:01:54;;;;;;;;;;;;;;;;;;5102246;28;20014;-69
2023/03/25 04:04:22;;;;;;;;;;;;;;;;;;5096643;28;20395;-67
2023/03/25 04:06:49;;;;;;;;;;;;;;;;;;5089130;28;19923;-68
2023/03/25 04:09:17;;;;;;;;;;;;;;;;;;5107481;28;19924;-68
2023/03/25 04:11:44;;;;;;;;;;;;;;;;;;5097507;28;19923;-67
2023/03/25 04:14:11;;;;;;;;;;;;;;;;;;5099419;28;19928;-69
2023/03/25 04:16:38;;;;;;;;;;;;;;;;;;5091438;28;20439;-68
2023/03/25 04:19:05;;;;;;;;;;;;;;;;;;5101442;28;20016;-68
2023/03/25 04:21:32;;;;;;;;;;;;;;;;;;5103495;28;19951;-68
2023/03/25 04:24:00;;;;;;;;;;;;;;;;;;5092972;28;19928;-68
2023/03/25 04:26:28;;;;;;;;;;;;;;;;;;5090799;28;19927;-68
2023/03/25 04:28:58;;;;;;;;;;;;;;;;;;5100434;28;20325;-68
2023/03/25 04:31:29;;;;;;;;;;;;;;;;;;5095472;28;20303;-68
2023/03/25 04:33:56;;;;;;;;;;;;;;;;;;5092833;28;19978;-68
2023/03/25 04:36:23;;;;;;;;;;;;;;;;;;5079067;28;19924;-68
2023/03/25 04:38:51;;;;;;;;;;;;;;;;;;5106822;28;20338;-69
2023/03/25 04:41:18;;;;;;;;;;;;;;;;;;5093959;28;21055;-68
2023/03/25 04:43:45;;;;;;;;;;;;;;;;;;5093939;28;19935;-69
2023/03/25 04:46:12;;;;;;;;;;;;;;;;;;5093162;28;20401;-69
2023/03/25 04:48:40;;;;;;;;;;;;;;;;;;5098482;28;19924;-69
2023/03/25 04:51:09;;;;;;;;;;;;;;;;;;5104442;28;20470;-69
2023/03/25 04:53:36;;;;;;;;;;;;;;;;;;5096433;28;20475;-70
2023/03/25 04:56:03;;;;;;;;;;;;;;;;;;5101994;28;19924;-70
2023/03/25 04:58:30;;;;;;;;;;;;;;;;;;5090907;28;21584;-69
2023/03/25 05:01:04;;;;;;;;;;;;;;;;;;5087660;28;20311;-68
2023/03/25 05:03:31;;;;;;;;;;;;;;;;;;5106293;28;19930;-68
2023/03/25 05:05:59;;;;;;;;;;;;;;;;;;5094475;28;19933;-68
2023/03/25 05:08:26;;;;;;;;;;;;;;;;;;5097395;28;19923;-68
2023/03/25 05:10:53;;;;;;;;;;;;;;;;;;5092741;28;20006;-71
2023/03/25 05:13:20;;;;;;;;;;;;;;;;;;5101418;28;19923;-70
2023/03/25 05:15:48;;;;;;;;;;;;;;;;;;5107154;28;19931;-69
2023/03/25 05:18:15;;;;;;;;;;;;;;;;;;5104615;28;19976;-67
2023/03/25 05:20:42;;;;;;;;;;;;;;;;;;5100230;28;19932;-68
2023/03/25 05:23:11;;;;;;;;;;;;;;;;;;5093952;28;20023;-68
2023/03/25 05:25:37;;;;;;;;;;;;;;;;;;5093076;28;20019;-68
2023/03/25 05:28:04;;;;;;;;;;;;;;;;;;5096704;28;20093;-68
2023/03/25 05:30:32;;;;;;;;;;;;;;;;;;5100235;28;19928;-68
2023/03/25 05:33:00;;;;;;;;;;;;;;;;;;5102601;28;19958;-68
2023/03/25 05:35:27;;;;;;;;;;;;;;;;;;5095454;28;20398;-68
2023/03/25 05:37:54;;;;;;;;;;;;;;;;;;5107339;28;19967;-68
2023/03/25 05:40:21;;;;;;;;;;;;;;;;;;5114422;28;20001;-68
2023/03/25 05:42:53;;;;;;;;;;;;;;;;;;5093348;28;19932;-68
2023/03/25 05:45:20;;;;;;;;;;;;;;;;;;5108234;28;20344;-68
2023/03/25 05:47:47;;;;;;;;;;;;;;;;;;5099314;28;19928;-68
2023/03/25 05:50:15;;;;;;;;;;;;;;;;;;5104392;28;19924;-68
2023/03/25 05:52:42;;;;;;;;;;;;;;;;;;5097745;28;19924;-69
2023/03/25 05:55:09;;;;;;;;;;;;;;;;;;5091939;28;20010;-69
2023/03/25 05:57:36;;;;;;;;;;;;;;;;;;5087302;28;19924;-69
2023/03/25 06:00:07;;;;;;;;;;;;;;;;;;5113141;28;19927;-69
2023/03/25 06:02:34;;;;;;;;;;;;;;;;;;5101246;28;20393;-69
2023/03/25 06:05:01;;;;;;;;;;;;;;;;;;5094305;28;20291;-69
2023/03/25 06:07:28;;;;;;;;;;;;;;;;;;5092315;28;20343;-68
2023/03/25 06:09:55;;;;;;;;;;;;;;;;;;5108751;28;19928;-69
2023/03/25 06:12:26;;;;;;;;;;;;;;;;;;5108290;28;20297;-69
2023/03/25 06:14:53;;;;;;;;;;;;;;;;;;5089595;28;19924;-69
2023/03/25 06:17:21;;;;;;;;;;;;;;;;;;5087404;28;19940;-68
2023/03/25 06:19:48;;;;;;;;;;;;;;;;;;5100903;28;19945;-69
2023/03/25 06:22:15;;;;;;;;;;;;;;;;;;5091576;28;20320;-68
2023/03/25 06:24:42;;;;;;;;;;;;;;;;;;5090259;28;20377;-68
2023/03/25 06:27:09;;;;;;;;;;;;;;;;;;5092847;28;20364;-68
2023/03/25 06:29:37;;;;;;;;;;;;;;;;;;5105282;28;20407;-68
2023/03/25 06:32:04;;;;;;;;;;;;;;;;;;5088709;28;19932;-67
2023/03/25 06:34:32;;;;;;;;;;;;;;;;;;5088365;28;19932;-66
2023/03/25 06:37:00;;;;;;;;;;;;;;;;;;5088540;28;19939;-66
2023/03/25 06:39:30;;;;;;;;;;;;;;;;;;5086152;28;20660;-67
2023/03/25 06:41:56;;;;;;;;;;;;;;;;;;5092672;28;19932;-69
2023/03/25 06:44:23;;;;;;;;;;;;;;;;;;5088009;28;20746;-70
2023/03/25 06:46:50;;;;;;;;;;;;;;;;;;5081289;28;19942;-69
2023/03/25 06:49:17;;;;;;;;;;;;;;;;;;5087243;28;19932;-69
2023/03/25 06:51:44;;;;;;;;;;;;;;;;;;5083896;28;19924;-69
2023/03/25 06:54:11;;;;;;;;;;;;;;;;;;5090031;28;20393;-69
2023/03/25 06:56:38;;;;;;;;;;;;;;;;;;5088420;28;20272;-69
2023/03/25 06:59:05;;;;;;;;;;;;;;;;;;5091708;28;19924;-69
2023/03/25 07:01:32;;;;;;;;;;;;;;;;;;5087695;28;19928;-70
2023/03/25 07:03:59;;;;;;;;;;;;;;;;;;5093878;28;20030;-69
2023/03/25 07:06:26;;;;;;;;;;;;;;;;;;5089687;28;19924;-69
2023/03/25 07:08:53;;;;;;;;;;;;;;;;;;5090277;28;19974;-68
2023/03/25 07:11:21;;;;;;;;;;;;;;;;;;5098481;28;19928;-69
2023/03/25 07:13:48;;;;;;;;;;;;;;;;;;5091521;28;19924;-70
2023/03/25 07:16:14;;;;;;;;;;;;;;;;;;5080497;28;19947;-69
2023/03/25 07:18:41;;;;;;;;;;;;;;;;;;5083441;28;20018;-69
2023/03/25 07:21:08;;;;;;;;;;;;;;;;;;5079260;28;19932;-68
2023/03/25 07:23:36;;;;;;;;;;;;;;;;;;5090233;28;19982;-70
2023/03/25 07:26:03;;;;;;;;;;;;;;;;;;5088854;28;19924;-69
2023/03/25 07:28:30;;;;;;;;;;;;;;;;;;5092472;28;19923;-68
2023/03/25 07:30:57;;;;;;;;;;;;;;;;;;5092152;28;19942;-68
2023/03/25 07:33:24;;;;;;;;;;;;;;;;;;5083842;28;19924;-69
2023/03/25 07:35:51;;;;;;;;;;;;;;;;;;5086644;28;19966;-68
2023/03/25 07:38:18;;;;;;;;;;;;;;;;;;5087552;28;19930;-69
2023/03/25 07:40:45;;;;;;;;;;;;;;;;;;5087687;28;19932;-69
2023/03/25 07:43:12;;;;;;;;;;;;;;;;;;5087698;28;20007;-69
2023/03/25 07:45:39;;;;;;;;;;;;;;;;;;5084158;28;20019;-67
2023/03/25 07:48:12;;;;;;;;;;;;;;;;;;5089163;28;19957;-67
2023/03/25 07:50:39;;;;;;;;;;;;;;;;;;5083109;28;20013;-68
2023/03/25 07:53:06;;;;;;;;;;;;;;;;;;5081357;28;19924;-68
2023/03/25 07:55:33;;;;;;;;;;;;;;;;;;5088085;28;19928;-69
2023/03/25 07:58:01;;;;;;;;;;;;;;;;;;5086693;28;20526;-68
2023/03/25 08:00:28;;;;;;;;;;;;;;;;;;5088288;28;19934;-68
2023/03/25 08:02:55;;;;;;;;;;;;;;;;;;5084769;28;19934;-69
2023/03/25 08:05:22;;;;;;;;;;;;;;;;;;5084910;28;19967;-69
2023/03/25 08:07:49;;;;;;;;;;;;;;;;;;5090001;28;19924;-68
2023/03/25 08:10:16;;;;;;;;;;;;;;;;;;5096505;28;19928;-68
2023/03/25 08:12:43;;;;;;;;;;;;;;;;;;5083365;28;19932;-68
2023/03/25 08:15:10;;;;;;;;;;;;;;;;;;5094698;28;20033;-68
2023/03/25 08:17:37;;;;;;;;;;;;;;;;;;5082574;28;19928;-67
2023/03/25 08:20:08;;;;;;;;;;;;;;;;;;5084667;28;19928;-69
2023/03/25 08:22:35;;;;;;;;;;;;;;;;;;5088354;28;19924;-69
2023/03/25 08:25:02;;;;;;;;;;;;;;;;;;5094303;28;20019;-69
2023/03/25 08:27:29;;;;;;;;;;;;;;;;;;5088646;28;20003;-68
2023/03/25 08:29:58;;;;;;;;;;;;;;;;;;5097369;28;19975;-69
2023/03/25 08:32:26;;;;;;;;;;;;;;;;;;5091167;28;20392;-69
2023/03/25 08:34:53;;;;;;;;;;;;;;;;;;5093737;28;19936;-68
2023/03/25 08:37:20;;;;;;;;;;;;;;;;;;5086574;28;19970;-68
2023/03/25 08:39:49;;;;;;;;;;;;;;;;;;5098223;28;19932;-69
2023/03/25 08:42:16;;;;;;;;;;;;;;;;;;5089145;28;19990;-69
2023/03/25 08:44:43;;;;;;;;;;;;;;;;;;5088579;28;19924;-68
2023/03/25 08:47:10;;;;;;;;;;;;;;;;;;5094074;28;19924;-69
2023/03/25 08:49:37;;;;;;;;;;;;;;;;;;5089172;28;20015;-69
2023/03/25 08:52:07;;;;;;;;;;;;;;;;;;5091351;28;20368;-69
2023/03/25 08:54:34;;;;;;;;;;;;;;;;;;5092362;28;19958;-69
2023/03/25 08:57:01;;;;;;;;;;;;;;;;;;5091821;28;19924;-69
2023/03/25 08:59:28;;;;;;;;;;;;;;;;;;5086672;28;20028;-69
2023/03/25 09:01:55;;;;;;;;;;;;;;;;;;5082638;28;19924;-68
2023/03/25 09:04:22;;;;;;;;;;;;;;;;;;5089317;28;19983;-67
2023/03/25 09:06:49;;;;;;;;;;;;;;;;;;5088970;28;19930;-67
2023/03/25 09:09:16;;;;;;;;;;;;;;;;;;5093458;28;20488;-67
2023/03/25 09:11:44;;;;;;;;;;;;;;;;;;5100430;28;20018;-68
2023/03/25 09:14:11;;;;;;;;;;;;;;;;;;5090336;28;19954;-68
2023/03/25 09:16:38;;;;;;;;;;;;;;;;;;5090693;28;20014;-69
2023/03/25 09:19:05;;;;;;;;;;;;;;;;;;5091363;28;19924;-69
2023/03/25 09:21:32;;;;;;;;;;;;;;;;;;5093072;28;19924;-68
2023/03/25 09:23:59;;;;;;;;;;;;;;;;;;5089560;28;19924;-68
2023/03/25 09:26:26;;;;;;;;;;;;;;;;;;5090759;28;19924;-69
2023/03/25 09:28:55;;;;;;;;;;;;;;;;;;5093430;28;20406;-68
2023/03/25 09:31:22;;;;;;;;;;;;;;;;;;5086464;28;19934;-69
2023/03/25 09:33:49;;;;;;;;;;;;;;;;;;5090234;28;19924;-67
2023/03/25 09:36:16;;;;;;;;;;;;;;;;;;5084994;28;19943;-67
2023/03/25 09:38:43;;;;;;;;;;;;;;;;;;5090203;28;20997;-67
2023/03/25 09:41:10;;;;;;;;;;;;;;;;;;5094485;28;19978;-68
2023/03/25 09:43:37;;;;;;;;;;;;;;;;;;5090504;28;20027;-69
2023/03/25 09:46:04;;;;;;;;;;;;;;;;;;5087148;28;20350;-68
2023/03/25 09:48:31;;;;;;;;;;;;;;;;;;5092950;28;19931;-69
2023/03/25 09:50:58;;;;;;;;;;;;;;;;;;5090708;28;19924;-69
2023/03/25 09:53:25;;;;;;;;;;;;;;;;;;5094742;28;19932;-69
2023/03/25 09:55:52;;;;;;;;;;;;;;;;;;5091733;28;19930;-70
2023/03/25 09:58:19;;;;;;;;;;;;;;;;;;5086874;28;19931;-68
2023/03/25 10:00:46;;;;;;;;;;;;;;;;;;5092864;28;20337;-69
2023/03/25 10:03:13;;;;;;;;;;;;;;;;;;5094770;28;19946;-68
2023/03/25 10:05:41;;;;;;;;;;;;;;;;;;5087518;28;20018;-68
2023/03/25 10:08:08;;;;;;;;;;;;;;;;;;5088304;28;19932;-69
2023/03/25 10:10:35;;;;;;;;;;;;;;;;;;5092572;28;19949;-69
2023/03/25 10:13:02;;;;;;;;;;;;;;;;;;5093823;28;20015;-69
2023/03/25 10:15:29;;;;;;;;;;;;;;;;;;5094666;28;20028;-68
2023/03/25 10:17:56;;;;;;;;;;;;;;;;;;5090155;28;20400;-70
2023/03/25 10:20:23;;;;;;;;;;;;;;;;;;5095744;28;20022;-68
2023/03/25 10:22:50;;;;;;;;;;;;;;;;;;5086870;28;20379;-69
2023/03/25 10:25:17;;;;;;;;;;;;;;;;;;5088148;28;20298;-69
2023/03/25 10:27:44;;;;;;;;;;;;;;;;;;5096895;28;20420;-69
2023/03/25 10:30:11;;;;;;;;;;;;;;;;;;5100152;28;19978;-70
2023/03/25 10:32:38;;;;;;;;;;;;;;;;;;5086026;28;19936;-69
2023/03/25 10:35:05;;;;;;;;;;;;;;;;;;5096715;28;20452;-68
2023/03/25 10:37:32;;;;;;;;;;;;;;;;;;5088821;28;19924;-67
2023/03/25 10:39:59;;;;;;;;;;;;;;;;;;5085280;28;19935;-67
2023/03/25 10:42:26;;;;;;;;;;;;;;;;;;5095671;28;19924;-69
2023/03/25 10:44:53;;;;;;;;;;;;;;;;;;5091775;28;19996;-68
2023/03/25 10:47:20;;;;;;;;;;;;;;;;;;5098091;28;20527;-69
2023/03/25 10:49:47;;;;;;;;;;;;;;;;;;5091043;28;20281;-68
2023/03/25 10:52:14;;;;;;;;;;;;;;;;;;5086378;28;20294;-69
2023/03/25 10:54:41;;;;;;;;;;;;;;;;;;5090180;28;19968;-70
2023/03/25 10:57:08;;;;;;;;;;;;;;;;;;5086908;28;19982;-70
2023/03/25 10:59:35;;;;;;;;;;;;;;;;;;5088222;28;19924;-69
2023/03/25 11:02:02;;;;;;;;;;;;;;;;;;5082949;28;19972;-69
2023/03/25 11:04:29;;;;;;;;;;;;;;;;;;5085759;28;20629;-69
2023/03/25 11:06:57;;;;;;;;;;;;;;;;;;5082599;28;19924;-69
2023/03/25 11:09:24;;;;;;;;;;;;;;;;;;5092015;28;20993;-70
2023/03/25 11:11:51;;;;;;;;;;;;;;;;;;5097844;28;19959;-70
2023/03/25 11:14:18;;;;;;;;;;;;;;;;;;5100211;28;19947;-70
2023/03/25 11:16:45;;;;;;;;;;;;;;;;;;5095056;28;19966;-70
2023/03/25 11:19:12;;;;;;;;;;;;;;;;;;5087997;28;19975;-70
2023/03/25 11:21:39;;;;;;;;;;;;;;;;;;5086334;28;19924;-69
2023/03/25 11:24:06;;;;;;;;;;;;;;;;;;5085878;28;20026;-69
2023/03/25 11:26:33;;;;;;;;;;;;;;;;;;5078912;28;19929;-69
2023/03/25 11:29:01;;;;;;;;;;;;;;;;;;5089577;28;19931;-70
2023/03/25 11:31:28;;;;;;;;;;;;;;;;;;5086923;28;19924;-68
2023/03/25 11:33:55;;;;;;;;;;;;;;;;;;5085237;28;19924;-69
2023/03/25 11:36:22;;;;;;;;;;;;;;;;;;5089372;28;20019;-68
2023/03/25 11:38:49;;;;;;;;;;;;;;;;;;5086158;28;20023;-68
2023/03/25 11:41:16;;;;;;;;;;;;;;;;;;5091857;28;19932;-69
2023/03/25 11:43:43;;;;;;;;;;;;;;;;;;5088128;28;19928;-69
2023/03/25 11:46:10;;;;;;;;;;;;;;;;;;5095763;28;19969;-70
2023/03/25 11:48:38;;;;;;;;;;;;;;;;;;5086660;28;19970;-70
2023/03/25 11:51:05;;;;;;;;;;;;;;;;;;5090533;28;19929;-69
2023/03/25 11:53:32;;;;;;;;;;;;;;;;;;5089660;28;19924;-70
2023/03/25 11:55:59;;;;;;;;;;;;;;;;;;5088963;28;19928;-70
2023/03/25 11:58:27;;;;;;;;;;;;;;;;;;5088441;28;20426;-69
2023/03/25 12:00:54;;;;;;;;;;;;;;;;;;5091763;28;19924;-69
2023/03/25 12:03:21;;;;;;;;;;;;;;;;;;5085134;28;19970;-70
2023/03/25 12:05:48;;;;;;;;;;;;;;;;;;5083927;28;19924;-69
2023/03/25 12:08:15;;;;;;;;;;;;;;;;;;5090843;28;19927;-71
2023/03/25 12:10:42;;;;;;;;;;;;;;;;;;5091384;28;19968;-69
2023/03/25 12:13:09;;;;;;;;;;;;;;;;;;5091965;28;19925;-70
2023/03/25 12:15:36;;;;;;;;;;;;;;;;;;5093831;28;19924;-70
2023/03/25 12:18:03;;;;;;;;;;;;;;;;;;5090290;28;19944;-70
2023/03/25 12:20:30;;;;;;;;;;;;;;;;;;5090757;28;19942;-70
2023/03/25 12:22:57;;;;;;;;;;;;;;;;;;5084282;28;19979;-70
2023/03/25 12:25:26;;;;;;;;;;;;;;;;;;5088732;28;19967;-69
2023/03/25 12:27:53;;;;;;;;;;;;;;;;;;5082800;28;20334;-68
2023/03/25 12:30:20;;;;;;;;;;;;;;;;;;5086116;28;20024;-70
2023/03/25 12:32:47;;;;;;;;;;;;;;;;;;5091621;28;19935;-68
2023/03/25 12:35:14;;;;;;;;;;;;;;;;;;5076271;28;19931;-69
2023/03/25 12:37:41;;;;;;;;;;;;;;;;;;5087350;28;20503;-69
2023/03/25 12:40:10;;;;;;;;;;;;;;;;;;5092006;28;19939;-70
2023/03/25 12:42:37;;;;;;;;;;;;;;;;;;5085986;28;19931;-68
2023/03/25 12:45:04;;;;;;;;;;;;;;;;;;5089331;28;19924;-70
2023/03/25 12:47:31;;;;;;;;;;;;;;;;;;5085806;28;19924;-70
2023/03/25 12:49:58;;;;;;;;;;;;;;;;;;5088086;28;20299;-69
2023/03/25 12:52:25;;;;;;;;;;;;;;;;;;5079346;28;19932;-68
2023/03/25 12:54:52;;;;;;;;;;;;;;;;;;5080757;28;20018;-69
2023/03/25 12:57:19;;;;;;;;;;;;;;;;;;5085003;28;20023;-70
2023/03/25 12:59:46;;;;;;;;;;;;;;;;;;5082524;28;20031;-70
2023/03/25 13:02:13;;;;;;;;;;;;;;;;;;5094439;28;19924;-69
2023/03/25 13:04:40;;;;;;;;;;;;;;;;;;5082125;28;20383;-70
2023/03/25 13:07:07;;;;;;;;;;;;;;;;;;5080607;28;21848;-70
2023/03/25 13:09:34;;;;;;;;;;;;;;;;;;5083887;28;20294;-70
2023/03/25 13:12:02;;;;;;;;;;;;;;;;;;5082128;28;19957;-69
2023/03/25 13:14:29;;;;;;;;;;;;;;;;;;5080539;28;20026;-70
2023/03/25 13:16:56;;;;;;;;;;;;;;;;;;5080162;28;19948;-68
2023/03/25 13:19:23;;;;;;;;;;;;;;;;;;5080449;28;20353;-71
2023/03/25 13:21:51;;;;;;;;;;;;;;;;;;5083027;28;20391;-70
2023/03/25 13:24:18;;;;;;;;;;;;;;;;;;5090578;28;20523;-69
2023/03/25 13:26:45;;;;;;;;;;;;;;;;;;5088140;28;19950;-70
2023/03/25 13:29:12;;;;;;;;;;;;;;;;;;5086462;28;20367;-70
2023/03/25 13:31:40;;;;;;;;;;;;;;;;;;5079168;28;22127;-69
2023/03/25 13:34:08;;;;;;;;;;;;;;;;;;5087636;28;19924;-70
2023/03/25 13:36:36;;;;;;;;;;;;;;;;;;5086054;28;20356;-70
2023/03/25 13:39:04;;;;;;;;;;;;;;;;;;5081904;28;19930;-68
2023/03/25 13:41:31;;;;;;;;;;;;;;;;;;5087741;28;19967;-70
2023/03/25 13:43:58;;;;;;;;;;;;;;;;;;5078943;28;20383;-69
2023/03/25 13:46:25;;;;;;;;;;;;;;;;;;5087686;28;19931;-68
2023/03/25 13:48:52;;;;;;;;;;;;;;;;;;5094543;28;19997;-70
2023/03/25 13:51:19;;;;;;;;;;;;;;;;;;5086641;28;20398;-69
2023/03/25 13:53:45;;;;;;;;;;;;;;;;;;5092090;28;19935;-67
2023/03/25 13:56:12;;;;;;;;;;;;;;;;;;5097764;28;20338;-68
2023/03/25 13:58:39;;;;;;;;;;;;;;;;;;5090756;28;19931;-68
2023/03/25 14:01:07;;;;;;;;;;;;;;;;;;5084627;28;19924;-68
2023/03/25 14:03:34;;;;;;;;;;;;;;;;;;5087881;28;19932;-68
2023/03/25 14:06:01;;;;;;;;;;;;;;;;;;5089247;28;19959;-68
2023/03/25 14:08:28;;;;;;;;;;;;;;;;;;5083213;28;19933;-69
2023/03/25 14:10:55;;;;;;;;;;;;;;;;;;5087114;28;19932;-70
2023/03/25 14:13:22;;;;;;;;;;;;;;;;;;5080415;28;20008;-68
2023/03/25 14:15:49;;;;;;;;;;;;;;;;;;5084775;28;19924;-68
2023/03/25 14:18:16;;;;;;;;;;;;;;;;;;5090545;28;19928;-69
2023/03/25 14:20:43;;;;;;;;;;;;;;;;;;5081835;28;20135;-69
2023/03/25 14:23:11;;;;;;;;;;;;;;;;;;5086736;28;20410;-69
2023/03/25 14:25:38;;;;;;;;;;;;;;;;;;5088361;27;20015;-68
2023/03/25 14:28:05;;;;;;;;;;;;;;;;;;5099298;28;19997;-69
2023/03/25 14:30:32;;;;;;;;;;;;;;;;;;5088294;28;19924;-69
2023/03/25 14:33:01;;;;;;;;;;;;;;;;;;5092028;28;19963;-69
2023/03/25 14:35:28;;;;;;;;;;;;;;;;;;5083770;28;19924;-68
2023/03/25 14:37:55;;;;;;;;;;;;;;;;;;5092082;28;20427;-69
2023/03/25 14:40:23;;;;;;;;;;;;;;;;;;5092050;28;19955;-68
2023/03/25 14:42:49;;;;;;;;;;;;;;;;;;5085156;28;19947;-69
2023/03/25 14:45:17;;;;;;;;;;;;;;;;;;5089087;28;19974;-68
2023/03/25 14:47:45;;;;;;;;;;;;;;;;;;5090632;28;19924;-68
2023/03/25 14:50:12;;;;;;;;;;;;;;;;;;5088121;28;19936;-69
2023/03/25 14:52:39;;;;;;;;;;;;;;;;;;5079621;28;19924;-69
2023/03/25 14:55:06;;;;;;;;;;;;;;;;;;5091900;28;19934;-70
2023/03/25 14:57:33;;;;;;;;;;;;;;;;;;5087318;28;20023;-70
2023/03/25 15:00:08;;;;;;;;;;;;;;;;;;5086330;28;19924;-70
2023/03/25 15:02:35;;;;;;;;;;;;;;;;;;5082935;28;19954;-70
2023/03/25 15:05:03;;;;;;;;;;;;;;;;;;5091322;22;19935;-69
2023/03/25 15:07:31;;;;;;;;;;;;;;;;;;5061919;28;19985;-69
2023/03/25 15:09:58;;;;;;;;;;;;;;;;;;5064356;28;19933;-69
2023/03/25 15:12:28;;;;;;;;;;;;;;;;;;5064072;28;20477;-69
2023/03/25 15:14:55;;;;;;;;;;;;;;;;;;5063312;28;19993;-69
2023/03/25 15:17:22;;;;;;;;;;;;;;;;;;5064950;28;19964;-69
2023/03/25 15:19:49;;;;;;;;;;;;;;;;;;5060553;28;19931;-68
2023/03/25 15:22:16;;;;;;;;;;;;;;;;;;5063331;28;19932;-68
2023/03/25 15:24:43;;;;;;;;;;;;;;;;;;5063651;28;19931;-69
2023/03/25 15:27:10;;;;;;;;;;;;;;;;;;5055638;28;20059;-69
2023/03/25 15:29:37;;;;;;;;;;;;;;;;;;5061774;28;20364;-68
2023/03/25 15:32:04;;;;;;;;;;;;;;;;;;5061585;28;19968;-69
2023/03/25 15:34:31;;;;;;;;;;;;;;;;;;5063114;28;20017;-68
2023/03/25 15:36:58;;;;;;;;;;;;;;;;;;5066588;28;19931;-69
2023/03/25 15:39:25;;;;;;;;;;;;;;;;;;5065062;28;19963;-69
2023/03/25 15:41:52;;;;;;;;;;;;;;;;;;5063892;28;19924;-69
2023/03/25 15:44:19;;;;;;;;;;;;;;;;;;5064600;28;19932;-68
2023/03/25 15:46:46;;;;;;;;;;;;;;;;;;5064460;28;19943;-69
2023/03/25 15:49:13;;;;;;;;;;;;;;;;;;5059817;28;19932;-69
2023/03/25 15:51:40;;;;;;;;;;;;;;;;;;5066384;28;19956;-69
2023/03/25 15:54:07;;;;;;;;;;;;;;;;;;5067411;28;20474;-69
2023/03/25 15:56:34;;;;;;;;;;;;;;;;;;5064949;28;20454;-69
2023/03/25 15:59:02;;;;;;;;;;;;;;;;;;5065467;28;19925;-68
2023/03/25 16:01:30;;;;;;;;;;;;;;;;;;5059350;28;19932;-70
2023/03/25 16:03:57;;;;;;;;;;;;;;;;;;5065293;28;20024;-70
2023/03/25 16:06:24;;;;;;;;;;;;;;;;;;5063495;28;19968;-67
2023/03/25 16:08:51;;;;;;;;;;;;;;;;;;5062785;28;19939;-67
2023/03/25 16:11:18;;;;;;;;;;;;;;;;;;5064974;28;19931;-68
2023/03/25 16:13:45;;;;;;;;;;;;;;;;;;5067834;28;19994;-67
2023/03/25 16:16:12;;;;;;;;;;;;;;;;;;5060627;28;19994;-67
2023/03/25 16:18:40;;;;;;;;;;;;;;;;;;5055893;28;19933;-67
2023/03/25 16:21:07;;;;;;;;;;;;;;;;;;5057582;28;19939;-69
2023/03/25 16:23:34;;;;;;;;;;;;;;;;;;5061750;28;20013;-69
2023/03/25 16:26:01;;;;;;;;;;;;;;;;;;5066443;28;20392;-70
2023/03/25 16:28:28;;;;;;;;;;;;;;;;;;5067794;28;20026;-72
2023/03/25 16:30:55;;;;;;;;;;;;;;;;;;5064703;28;20009;-70
2023/03/25 16:33:22;;;;;;;;;;;;;;;;;;5069996;28;19929;-72
2023/03/25 16:35:49;;;;;;;;;;;;;;;;;;5068291;28;19924;-70
2023/03/25 16:38:16;;;;;;;;;;;;;;;;;;5067405;28;19924;-70
2023/03/25 16:40:43;;;;;;;;;;;;;;;;;;5062076;28;19931;-71
2023/03/25 16:43:10;;;;;;;;;;;;;;;;;;5067067;28;19928;-71
2023/03/25 16:45:37;;;;;;;;;;;;;;;;;;5067343;28;19924;-71